createdAt,value
2022-11-25T00:00:50.375Z,6.71
2022-11-25T00:03:34.036Z,6.65
2022-11-25T00:06:12.829Z,6.69
2022-11-25T00:08:41.529Z,6.62
2022-11-25T00:11:15.435Z,6.63
2022-11-25T00:13:48.243Z,6.70
2022-11-25T00:16:21.511Z,6.70
2022-11-25T00:18:55.915Z,6.67
2022-11-25T00:21:29.172Z,6.67
2022-11-25T00:23:58.710Z,6.72
2022-11-25T00:26:28.608Z,6.72
2022-11-25T00:28:58.218Z,6.75
2022-11-25T00:31:28.716Z,6.74
2022-11-25T00:33:56.629Z,6.72
2022-11-25T00:36:25.335Z,6.74
2022-11-25T00:39:01.412Z,6.75
2022-11-25T00:41:47.723Z,6.71
2022-11-25T00:44:38.309Z,6.68
2022-11-25T00:47:12.172Z,6.70
2022-11-25T00:49:40.953Z,6.72
2022-11-25T00:52:08.904Z,6.73
2022-11-25T00:54:36.387Z,6.76
2022-11-25T00:57:03.840Z,6.68
2022-11-25T00:59:31.495Z,6.66
2022-11-25T01:01:58.745Z,6.70
2022-11-25T01:04:26.011Z,6.74
2022-11-25T01:06:54.419Z,6.72
2022-11-25T01:09:21.362Z,6.73
2022-11-25T01:11:51.340Z,6.68
2022-11-25T01:14:19.458Z,6.69
2022-11-25T01:16:46.802Z,6.70
2022-11-25T01:19:14.321Z,6.76
2022-11-25T01:21:41.670Z,6.70
2022-11-25T01:24:09.260Z,6.65
2022-11-25T01:26:36.522Z,6.66
2022-11-25T01:29:12.636Z,6.69
2022-11-25T01:31:42.581Z,6.68
2022-11-25T01:34:25.362Z,6.65
2022-11-25T01:36:58.302Z,6.63
2022-11-25T01:39:33.162Z,6.66
2022-11-25T01:42:07.119Z,6.61
2022-11-25T01:44:39.542Z,6.59
2022-11-25T01:47:24.706Z,6.60
2022-11-25T01:50:02.944Z,6.61
2022-11-25T01:52:45.267Z,6.61
2022-11-25T01:55:30.132Z,6.63
2022-11-25T01:58:04.096Z,6.66
2022-11-25T02:00:31.755Z,6.69
2022-11-25T02:03:03.194Z,6.69
2022-11-25T02:06:02.439Z,6.69
2022-11-25T02:08:33.653Z,6.73
2022-11-25T02:11:05.289Z,6.69
2022-11-25T02:13:34.350Z,6.71
2022-11-25T02:16:03.659Z,6.68
2022-11-25T02:18:33.369Z,6.71
2022-11-25T02:21:03.502Z,6.76
2022-11-25T02:23:45.810Z,6.71
2022-11-25T02:26:24.049Z,6.68
2022-11-25T02:28:52.086Z,6.75
2022-11-25T02:31:23.111Z,6.68
2022-11-25T02:33:51.574Z,6.62
2022-11-25T02:36:30.266Z,6.59
2022-11-25T02:39:10.802Z,6.66
2022-11-25T02:41:55.396Z,6.60
2022-11-25T02:44:22.862Z,6.58
2022-11-25T02:46:55.974Z,6.56
2022-11-25T02:49:23.324Z,6.61
2022-11-25T02:51:51.274Z,6.60
2022-11-25T02:54:21.685Z,6.56
2022-11-25T02:56:51.005Z,6.60
2022-11-25T02:59:21.115Z,6.54
2022-11-25T03:01:48.775Z,6.61
2022-11-25T03:04:19.352Z,6.56
2022-11-25T03:06:49.608Z,6.55
2022-11-25T03:09:19.443Z,6.49
2022-11-25T03:12:08.605Z,6.51
2022-11-25T03:14:38.737Z,6.54
2022-11-25T03:17:08.886Z,6.53
2022-11-25T03:19:43.168Z,6.52
2022-11-25T03:22:13.584Z,6.52
2022-11-25T03:24:48.132Z,6.52
2022-11-25T03:27:15.434Z,6.56
2022-11-25T03:29:42.556Z,6.56
2022-11-25T03:32:10.392Z,6.56
2022-11-25T03:34:43.596Z,6.56
2022-11-25T03:37:11.158Z,6.57
2022-11-25T03:39:38.191Z,6.54
2022-11-25T03:42:05.323Z,6.54
2022-11-25T03:44:32.514Z,6.58
2022-11-25T03:46:59.888Z,6.48
2022-11-25T03:49:29.796Z,6.55
2022-11-25T03:51:57.318Z,6.62
2022-11-25T03:54:25.232Z,6.61
2022-11-25T03:56:52.298Z,6.65
2022-11-25T03:59:19.546Z,6.58
2022-11-25T04:01:46.784Z,6.58
2022-11-25T04:04:14.535Z,6.58
2022-11-25T04:06:51.922Z,6.53
2022-11-25T04:09:37.647Z,6.55
2022-11-25T04:13:11.909Z,6.53
2022-11-25T04:16:08.718Z,6.53
2022-11-25T04:18:56.736Z,6.46
2022-11-25T04:24:35.220Z,6.49
2022-11-25T04:27:29.702Z,6.50
2022-11-25T04:33:39.068Z,6.51
2022-11-25T04:39:36.846Z,6.50
2022-11-25T04:42:28.863Z,6.47
2022-11-25T04:45:28.783Z,6.50
2022-11-25T04:48:04.277Z,6.47
2022-11-25T04:50:34.704Z,6.48
2022-11-25T04:53:01.749Z,6.51
2022-11-25T04:56:21.356Z,6.50
2022-11-25T04:59:26.074Z,6.46
2022-11-25T05:02:27.385Z,6.41
2022-11-25T05:04:56.810Z,6.34
2022-11-25T05:07:25.717Z,6.38
2022-11-25T05:09:56.208Z,6.42
2022-11-25T05:12:48.437Z,6.41
2022-11-25T05:15:52.744Z,6.44
2022-11-25T05:18:22.705Z,6.46
2022-11-25T05:20:49.769Z,6.47
2022-11-25T05:23:16.794Z,6.50
2022-11-25T05:25:43.869Z,6.52
2022-11-25T05:28:20.668Z,6.49
2022-11-25T05:30:47.836Z,6.53
2022-11-25T05:33:15.156Z,6.53
2022-11-25T05:35:42.173Z,6.52
2022-11-25T05:38:09.168Z,6.55
2022-11-25T05:40:36.310Z,6.56
2022-11-25T05:43:04.078Z,6.57
2022-11-25T05:45:31.250Z,6.51
2022-11-25T05:47:58.446Z,6.44
2022-11-25T05:50:28.800Z,6.45
2022-11-25T05:52:55.834Z,6.45
2022-11-25T05:55:22.930Z,6.40
2022-11-25T05:57:50.461Z,6.38
2022-11-25T06:00:20.980Z,6.37
2022-11-25T06:02:51.361Z,6.42
2022-11-25T06:05:20.036Z,6.42
2022-11-25T06:07:47.416Z,6.46
2022-11-25T06:10:15.004Z,6.49
2022-11-25T06:12:41.919Z,6.46
2022-11-25T06:15:09.634Z,6.48
2022-11-25T06:17:36.783Z,6.49
2022-11-25T06:20:07.993Z,6.51
2022-11-25T06:22:35.015Z,6.60
2022-11-25T06:25:03.997Z,6.60
2022-11-25T06:27:50.146Z,6.59
2022-11-25T06:30:19.316Z,6.67
2022-11-25T06:32:46.545Z,6.69
2022-11-25T06:35:13.610Z,6.64
2022-11-25T06:37:40.668Z,6.60
2022-11-25T06:40:08.480Z,6.64
2022-11-25T06:42:35.636Z,6.60
2022-11-25T06:45:02.931Z,6.59
2022-11-25T06:47:29.971Z,6.49
2022-11-25T06:49:57.024Z,6.45
2022-11-25T06:52:24.048Z,6.42
2022-11-25T06:54:51.804Z,6.37
2022-11-25T06:57:20.081Z,6.41
2022-11-25T06:59:47.147Z,6.37
2022-11-25T07:02:15.162Z,6.38
2022-11-25T07:04:42.022Z,6.41
2022-11-25T07:07:09.616Z,6.42
2022-11-25T07:09:37.126Z,6.35
2022-11-25T07:12:06.069Z,6.45
2022-11-25T07:14:33.011Z,6.42
2022-11-25T07:17:00.035Z,6.52
2022-11-25T07:19:26.940Z,6.62
2022-11-25T07:21:54.033Z,6.62
2022-11-25T07:24:20.916Z,6.62
2022-11-25T07:26:47.791Z,6.62
2022-11-25T07:29:51.638Z,6.63
2022-11-25T07:32:10.051Z,6.59
2022-11-25T07:34:37.599Z,6.67
2022-11-25T07:37:04.485Z,6.68
2022-11-25T07:39:31.500Z,6.71
2022-11-25T07:41:58.380Z,6.74
2022-11-25T07:44:25.494Z,6.78
2022-11-25T07:46:52.514Z,6.72
2022-11-25T07:49:21.968Z,6.62
2022-11-25T07:51:54.733Z,6.70
2022-11-25T07:54:23.016Z,6.64
2022-11-25T07:56:51.061Z,6.64
2022-11-25T07:59:18.973Z,6.71
2022-11-25T08:01:46.208Z,6.68
2022-11-25T08:04:19.776Z,6.65
2022-11-25T08:06:49.753Z,6.69
2022-11-25T08:09:19.892Z,6.68
2022-11-25T08:11:48.992Z,6.79
2022-11-25T08:14:16.851Z,6.90
2022-11-25T08:16:43.954Z,6.90
2022-11-25T08:19:14.473Z,6.97
2022-11-25T08:21:41.900Z,7.14
2022-11-25T08:24:16.590Z,7.16
2022-11-25T08:26:44.016Z,7.31
2022-11-25T08:29:16.966Z,7.33
2022-11-25T08:31:44.337Z,7.24
2022-11-25T08:34:19.287Z,7.31
2022-11-25T08:36:48.497Z,7.41
2022-11-25T08:39:51.363Z,7.36
2022-11-25T08:42:04.838Z,7.28
2022-11-25T08:44:32.101Z,7.36
2022-11-25T08:46:59.085Z,7.36
2022-11-25T08:49:27.290Z,7.41
2022-11-25T08:51:54.201Z,7.42
2022-11-25T08:54:21.145Z,7.49
2022-11-25T08:56:48.226Z,7.61
2022-11-25T08:59:15.396Z,7.63
2022-11-25T09:01:42.409Z,7.66
2022-11-25T09:04:09.459Z,7.83
2022-11-25T09:06:36.330Z,7.90
2022-11-25T09:09:06.349Z,7.90
2022-11-25T09:11:33.516Z,7.82
2022-11-25T09:14:02.936Z,7.83
2022-11-25T09:16:30.283Z,7.83
2022-11-25T09:18:57.484Z,7.80
2022-11-25T09:21:25.427Z,7.85
2022-11-25T09:23:54.161Z,7.88
2022-11-25T09:26:27.076Z,7.73
2022-11-25T09:28:54.952Z,7.68
2022-11-25T09:31:23.437Z,7.69
2022-11-25T09:33:50.881Z,7.81
2022-11-25T09:36:19.197Z,7.90
2022-11-25T09:38:46.595Z,7.79
2022-11-25T09:41:47.723Z,7.81
2022-11-25T09:44:57.869Z,7.98
2022-11-25T09:47:54.286Z,8.13
2022-11-25T09:50:45.223Z,8.27
2022-11-25T09:53:35.838Z,8.31
2022-11-25T09:56:04.965Z,8.34
2022-11-25T09:58:42.050Z,8.48
2022-11-25T10:01:17.515Z,8.51
2022-11-25T10:03:50.503Z,8.56
2022-11-25T10:06:34.887Z,8.66
2022-11-25T10:09:22.861Z,8.66
2022-11-25T10:12:05.702Z,8.69
2022-11-25T10:14:42.539Z,8.68
2022-11-25T10:17:42.441Z,8.57
2022-11-25T10:20:18.592Z,8.38
2022-11-25T10:22:59.690Z,8.31
2022-11-25T10:25:40.085Z,8.33
2022-11-25T10:28:20.370Z,8.31
2022-11-25T10:30:53.410Z,8.30
2022-11-25T10:33:25.150Z,8.27
2022-11-25T10:36:06.932Z,8.23
2022-11-25T10:38:44.434Z,8.25
2022-11-25T10:41:19.325Z,8.25
2022-11-25T10:43:48.086Z,8.25
2022-11-25T10:46:57.069Z,8.38
2022-11-25T10:49:30.349Z,8.56
2022-11-25T10:52:00.120Z,8.83
2022-11-25T10:54:29.182Z,8.94
2022-11-25T10:57:01.888Z,9.10
2022-11-25T10:59:37.776Z,9.19
2022-11-25T11:02:23.913Z,9.24
2022-11-25T11:05:03.322Z,9.48
2022-11-25T11:07:34.118Z,9.69
2022-11-25T11:10:23.525Z,9.85
2022-11-25T11:13:04.058Z,9.92
2022-11-25T11:15:47.323Z,9.89
2022-11-25T11:18:39.047Z,9.95
2022-11-25T11:21:08.809Z,9.89
2022-11-25T11:23:51.523Z,9.94
2022-11-25T11:26:27.768Z,9.91
2022-11-25T11:29:08.430Z,9.81
2022-11-25T11:31:41.228Z,9.83
2022-11-25T11:34:42.168Z,9.88
2022-11-25T11:37:27.756Z,9.83
2022-11-25T11:40:16.410Z,9.86
2022-11-25T11:43:02.572Z,10.05
2022-11-25T11:45:58.034Z,10.24
2022-11-25T11:48:53.241Z,10.23
2022-11-25T11:51:40.691Z,10.13
2022-11-25T11:54:16.435Z,9.98
2022-11-25T11:57:03.570Z,10.03
2022-11-25T11:59:51.724Z,10.26
2022-11-25T12:02:43.511Z,10.31
2022-11-25T12:05:10.385Z,10.25
2022-11-25T12:08:05.850Z,10.24
2022-11-25T12:10:43.735Z,10.25
2022-11-25T12:13:25.371Z,10.23
2022-11-25T12:16:01.168Z,10.26
2022-11-25T12:18:55.421Z,10.09
2022-11-25T12:21:42.247Z,9.71
2022-11-25T12:24:47.948Z,9.56
2022-11-25T12:27:23.633Z,9.51
2022-11-25T12:30:16.917Z,9.52
2022-11-25T12:33:06.641Z,9.46
2022-11-25T12:36:03.414Z,9.58
2022-11-25T12:38:56.307Z,9.63
2022-11-25T12:44:42.653Z,9.57
2022-11-25T12:47:12.975Z,9.61
2022-11-25T12:49:47.451Z,9.76
2022-11-25T12:52:51.475Z,9.79
2022-11-25T12:55:30.060Z,9.80
2022-11-25T12:58:36.352Z,9.76
2022-11-25T13:01:09.224Z,9.61
2022-11-25T13:04:01.278Z,9.51
2022-11-25T13:06:59.225Z,9.35
2022-11-25T13:09:44.847Z,9.27
2022-11-25T13:12:30.804Z,9.25
2022-11-25T13:15:13.536Z,9.27
2022-11-25T13:17:44.022Z,9.21
2022-11-25T13:20:29.479Z,9.10
2022-11-25T13:23:05.649Z,9.00
2022-11-25T13:25:33.712Z,8.99
2022-11-25T13:28:02.091Z,8.88
2022-11-25T13:30:34.833Z,8.73
2022-11-25T13:33:13.787Z,8.74
2022-11-25T13:35:43.469Z,8.68
2022-11-25T13:38:48.046Z,8.58
2022-11-25T13:41:29.196Z,8.50
2022-11-25T13:44:16.375Z,8.39
2022-11-25T13:46:49.853Z,8.22
2022-11-25T13:49:52.567Z,8.20
2022-11-25T13:52:19.413Z,8.08
2022-11-25T13:54:53.951Z,7.90
2022-11-25T13:57:25.837Z,7.88
2022-11-25T13:59:57.118Z,7.73
2022-11-25T14:02:30.692Z,7.72
2022-11-25T14:05:07.303Z,7.77
2022-11-25T14:07:37.439Z,7.87
2022-11-25T14:10:26.922Z,7.89
2022-11-25T14:13:09.921Z,7.94
2022-11-25T14:15:55.663Z,7.89
2022-11-25T14:22:11.299Z,7.88
2022-11-25T14:25:19.321Z,7.83
2022-11-25T14:28:40.310Z,7.87
2022-11-25T14:32:35.577Z,7.84
2022-11-25T14:35:34.229Z,7.84
2022-11-25T14:38:16.855Z,7.80
2022-11-25T14:40:54.402Z,7.93
2022-11-25T14:43:29.264Z,7.90
2022-11-25T14:46:18.445Z,7.91
2022-11-25T14:48:52.975Z,7.86
2022-11-25T14:51:29.319Z,7.88
2022-11-25T14:54:02.923Z,7.88
2022-11-25T14:56:33.515Z,7.94
2022-11-25T14:59:05.954Z,8.11
2022-11-25T15:02:04.556Z,8.12
2022-11-25T15:04:34.664Z,8.10
2022-11-25T15:07:06.187Z,7.94
2022-11-25T15:09:39.961Z,7.96
2022-11-25T15:12:22.174Z,7.96
2022-11-25T15:14:53.298Z,7.83
2022-11-25T15:17:33.305Z,7.77
2022-11-25T15:20:12.796Z,7.73
2022-11-25T15:22:40.079Z,7.71
2022-11-25T15:25:14.346Z,7.65
2022-11-25T15:27:46.755Z,7.60
2022-11-25T15:30:23.812Z,7.57
2022-11-25T15:32:52.574Z,7.50
2022-11-25T15:35:22.247Z,7.38
2022-11-25T15:37:50.238Z,7.32
2022-11-25T15:40:49.562Z,7.26
2022-11-25T15:43:31.738Z,7.04
2022-11-25T15:46:26.182Z,6.97
2022-11-25T15:49:23.590Z,6.93
2022-11-25T15:52:15.399Z,6.90
2022-11-25T15:54:55.351Z,6.84
2022-11-25T15:57:24.117Z,6.75
2022-11-25T15:59:55.305Z,6.73
2022-11-25T16:02:40.607Z,6.70
2022-11-25T16:05:56.146Z,6.62
2022-11-25T16:08:35.647Z,6.50
2022-11-25T16:11:21.554Z,6.43
2022-11-25T16:13:51.595Z,6.38
2022-11-25T16:16:32.750Z,6.31
2022-11-25T16:19:03.082Z,6.21
2022-11-25T16:21:45.182Z,6.10
2022-11-25T16:24:24.300Z,6.02
2022-11-25T16:27:07.082Z,5.93
2022-11-25T16:29:41.135Z,5.89
2022-11-25T16:32:17.236Z,5.83
2022-11-25T16:34:44.734Z,5.77
2022-11-25T16:37:12.483Z,5.70
2022-11-25T16:39:42.224Z,5.68
2022-11-25T16:42:17.902Z,5.57
2022-11-25T16:44:49.202Z,5.60
2022-11-25T16:47:16.964Z,5.59
2022-11-25T16:49:44.469Z,5.47
2022-11-25T16:52:11.430Z,5.45
2022-11-25T16:54:39.527Z,5.43
2022-11-25T16:59:54.569Z,5.34
2022-11-25T17:02:40.104Z,5.32
2022-11-25T17:05:23.675Z,5.30
2022-11-25T17:07:58.803Z,5.25
2022-11-25T17:10:40.594Z,5.26
2022-11-25T17:13:26.567Z,5.29
2022-11-25T17:15:55.269Z,5.33
2022-11-25T17:18:26.916Z,5.35
2022-11-25T17:20:54.116Z,5.30
2022-11-25T17:23:22.725Z,5.29
2022-11-25T17:25:51.316Z,5.29
2022-11-25T17:28:22.223Z,5.29
2022-11-25T17:31:21.173Z,5.24
2022-11-25T17:33:57.461Z,5.26
2022-11-25T17:36:25.346Z,5.23
2022-11-25T17:38:53.580Z,5.26
2022-11-25T17:41:27.472Z,5.31
2022-11-25T17:43:56.559Z,5.29
2022-11-25T17:46:28.860Z,5.25
2022-11-25T17:48:56.057Z,5.21
2022-11-25T17:51:23.274Z,5.21
2022-11-25T17:53:50.503Z,5.18
2022-11-25T17:56:26.362Z,5.14
2022-11-25T17:58:54.139Z,5.05
2022-11-25T18:01:21.846Z,5.12
2022-11-25T18:03:52.598Z,5.12
2022-11-25T18:06:20.149Z,5.08
2022-11-25T18:08:47.826Z,5.10
2022-11-25T18:11:34.062Z,5.07
2022-11-25T18:14:01.422Z,5.11
2022-11-25T18:16:29.857Z,5.06
2022-11-25T18:18:58.639Z,5.04
2022-11-25T18:21:26.784Z,5.08
2022-11-25T18:23:59.556Z,5.13
2022-11-25T18:27:01.254Z,5.06
2022-11-25T18:29:28.434Z,5.10
2022-11-25T18:31:57.102Z,5.08
2022-11-25T18:34:25.396Z,5.19
2022-11-25T18:36:53.417Z,5.15
2022-11-25T18:39:21.124Z,5.19
2022-11-25T18:41:50.116Z,5.25
2022-11-25T18:44:26.242Z,5.28
2022-11-25T18:46:54.894Z,5.27
2022-11-25T18:49:24.409Z,5.28
2022-11-25T18:51:52.716Z,5.28
2022-11-25T18:54:20.020Z,5.39
2022-11-25T18:56:51.890Z,5.42
2022-11-25T18:59:28.698Z,5.35
2022-11-25T19:01:56.354Z,5.32
2022-11-25T19:04:23.692Z,5.39
2022-11-25T19:06:55.020Z,5.36
2022-11-25T19:09:22.799Z,5.43
2022-11-25T19:11:52.855Z,5.45
2022-11-25T19:14:19.800Z,5.39
2022-11-25T19:16:47.014Z,5.43
2022-11-25T19:19:17.591Z,5.44
2022-11-25T19:21:44.740Z,5.47
2022-11-25T19:24:21.214Z,5.52
2022-11-25T19:26:56.859Z,5.49
2022-11-25T19:29:31.109Z,5.53
2022-11-25T19:32:02.554Z,5.57
2022-11-25T19:34:35.738Z,5.59
2022-11-25T19:37:03.564Z,5.63
2022-11-25T19:39:35.582Z,5.67
2022-11-25T19:42:10.014Z,5.67
2022-11-25T19:44:37.481Z,5.70
2022-11-25T19:47:15.108Z,5.68
2022-11-25T19:49:43.481Z,5.71
2022-11-25T19:52:22.564Z,5.77
2022-11-25T19:54:50.342Z,5.75
2022-11-25T19:57:20.684Z,5.73
2022-11-25T20:00:00.123Z,5.75
2022-11-25T20:02:34.471Z,5.75
2022-11-25T20:05:05.098Z,5.72
2022-11-25T20:07:32.851Z,5.70
2022-11-25T20:10:22.436Z,5.73
2022-11-25T20:12:50.434Z,5.72
2022-11-25T20:15:17.318Z,5.75
2022-11-25T20:17:51.088Z,5.68
2022-11-25T20:20:38.616Z,5.65
2022-11-25T20:23:16.987Z,5.69
2022-11-25T20:25:46.921Z,5.57
2022-11-25T20:28:20.045Z,5.53
2022-11-25T20:30:48.295Z,5.50
2022-11-25T20:33:21.085Z,5.43
2022-11-25T20:35:53.665Z,5.45
2022-11-25T20:38:30.725Z,5.45
2022-11-25T20:41:03.589Z,5.42
2022-11-25T20:43:33.608Z,5.42
2022-11-25T20:46:02.691Z,5.44
2022-11-25T20:48:35.667Z,5.51
2022-11-25T20:51:04.353Z,5.53
2022-11-25T20:53:32.797Z,5.48
2022-11-25T20:56:00.728Z,5.49
2022-11-25T20:58:31.029Z,5.54
2022-11-25T21:00:59.688Z,5.56
2022-11-25T21:03:27.652Z,5.59
2022-11-25T21:05:56.025Z,5.65
2022-11-25T21:08:31.484Z,5.59
2022-11-25T21:10:59.509Z,5.55
2022-11-25T21:13:31.248Z,5.61
2022-11-25T21:15:58.573Z,5.56
2022-11-25T21:18:27.243Z,5.55
2022-11-25T21:20:56.380Z,5.60
2022-11-25T21:23:28.063Z,5.65
2022-11-25T21:26:02.973Z,5.66
2022-11-25T21:28:34.561Z,5.62
2022-11-25T21:31:09.841Z,5.61
2022-11-25T21:33:38.402Z,5.60
2022-11-25T21:36:06.244Z,5.59
2022-11-25T21:38:33.657Z,5.55
2022-11-25T21:41:01.203Z,5.65
2022-11-25T21:43:39.819Z,5.65
2022-11-25T21:46:11.130Z,5.66
2022-11-25T21:48:40.219Z,5.63
2022-11-25T21:51:09.099Z,5.61
2022-11-25T21:53:37.563Z,5.62
2022-11-25T21:56:14.683Z,5.69
2022-11-25T21:58:42.169Z,5.71
2022-11-25T22:01:13.195Z,5.73
2022-11-25T22:03:40.904Z,5.76
2022-11-25T22:06:30.957Z,5.71
2022-11-25T22:09:33.789Z,5.72
2022-11-25T22:12:11.806Z,5.71
2022-11-25T22:17:38.892Z,5.61
2022-11-25T22:20:24.712Z,5.63
2022-11-25T22:22:55.464Z,5.60
2022-11-25T22:25:25.249Z,5.57
2022-11-25T22:27:52.888Z,5.60
2022-11-25T22:30:22.869Z,5.56
2022-11-25T22:33:01.389Z,5.58
2022-11-25T22:35:28.947Z,5.53
2022-11-25T22:37:56.045Z,5.43
2022-11-25T22:40:27.494Z,5.46
2022-11-25T22:42:56.561Z,5.43
2022-11-25T22:45:37.516Z,5.39
2022-11-25T22:48:07.060Z,5.27
2022-11-25T22:50:38.475Z,5.13
2022-11-25T22:53:13.843Z,5.06
2022-11-25T22:55:41.742Z,4.97
2022-11-25T22:58:10.531Z,4.90
2022-11-25T23:00:43.123Z,4.76
2022-11-25T23:03:29.610Z,4.73
2022-11-25T23:05:57.393Z,4.60
2022-11-25T23:08:29.051Z,4.51
2022-11-25T23:10:57.751Z,4.34
2022-11-25T23:13:25.582Z,4.33
2022-11-25T23:15:58.574Z,4.17
2022-11-25T23:18:35.287Z,4.16
2022-11-25T23:21:15.742Z,4.10
2022-11-25T23:23:45.792Z,4.06
2022-11-25T23:26:14.168Z,3.96
2022-11-25T23:28:50.748Z,3.89
2022-11-25T23:31:21.638Z,3.83
2022-11-25T23:33:50.881Z,3.77
2022-11-25T23:36:24.731Z,3.70
2022-11-25T23:38:58.679Z,3.65
2022-11-25T23:41:31.664Z,3.52
2022-11-25T23:44:06.183Z,3.43
2022-11-25T23:46:37.949Z,3.38
2022-11-25T23:49:10.142Z,3.28
2022-11-25T23:51:37.299Z,3.26
2022-11-25T23:54:04.441Z,3.10
2022-11-25T23:56:31.838Z,3.08
2022-11-25T23:59:01.978Z,3.01
